sensor_id;sensor_type;location;lat;lon;timestamp;temperature;humidity
21616;DHT22;10970;48.714;9.584;2022-11-04T00:01:32;10.40;99.90
21616;DHT22;10970;48.714;9.584;2022-11-04T00:03:58;10.40;99.90
21616;DHT22;10970;48.714;9.584;2022-11-04T00:06:24;10.40;99.90
21616;DHT22;10970;48.714;9.584;2022-11-04T00:08:55;10.40;99.90
21616;DHT22;10970;48.714;9.584;2022-11-04T00:11:21;10.50;99.90
21616;DHT22;10970;48.714;9.584;2022-11-04T00:14:07;10.50;99.90
21616;DHT22;10970;48.714;9.584;2022-11-04T00:16:32;10.50;99.90
21616;DHT22;10970;48.714;9.584;2022-11-04T00:19:17;10.60;99.90
21616;DHT22;10970;48.714;9.584;2022-11-04T00:21:43;10.50;99.90
21616;DHT22;10970;48.714;9.584;2022-11-04T00:24:28;10.40;99.90
21616;DHT22;10970;48.714;9.584;2022-11-04T00:27:21;10.40;99.90
21616;DHT22;10970;48.714;9.584;2022-11-04T00:30:08;10.40;99.90
21616;DHT22;10970;48.714;9.584;2022-11-04T00:32:35;10.40;99.90
21616;DHT22;10970;48.714;9.584;2022-11-04T00:35:20;10.40;99.90
21616;DHT22;10970;48.714;9.584;2022-11-04T00:37:46;10.40;99.90
21616;DHT22;10970;48.714;9.584;2022-11-04T00:40:14;10.40;99.90
21616;DHT22;10970;48.714;9.584;2022-11-04T00:42:41;10.40;99.90
21616;DHT22;10970;48.714;9.584;2022-11-04T00:45:08;10.30;99.90
21616;DHT22;10970;48.714;9.584;2022-11-04T00:47:33;10.30;99.90
21616;DHT22;10970;48.714;9.584;2022-11-04T00:49:59;10.30;99.90
21616;DHT22;10970;48.714;9.584;2022-11-04T00:52:25;10.30;99.90
21616;DHT22;10970;48.714;9.584;2022-11-04T00:54:50;10.30;99.90
21616;DHT22;10970;48.714;9.584;2022-11-04T00:57:16;10.30;99.90
21616;DHT22;10970;48.714;9.584;2022-11-04T00:59:42;10.40;99.90
21616;DHT22;10970;48.714;9.584;2022-11-04T01:02:08;10.40;99.90
21616;DHT22;10970;48.714;9.584;2022-11-04T01:04:35;10.40;99.90
21616;DHT22;10970;48.714;9.584;2022-11-04T01:07:01;10.40;99.90
21616;DHT22;10970;48.714;9.584;2022-11-04T01:09:27;10.50;99.90
21616;DHT22;10970;48.714;9.584;2022-11-04T01:11:53;10.50;99.90
21616;DHT22;10970;48.714;9.584;2022-11-04T01:14:19;10.40;99.90
21616;DHT22;10970;48.714;9.584;2022-11-04T01:16:45;10.40;99.90
21616;DHT22;10970;48.714;9.584;2022-11-04T01:19:13;10.30;99.90
21616;DHT22;10970;48.714;9.584;2022-11-04T01:21:38;10.30;99.90
21616;DHT22;10970;48.714;9.584;2022-11-04T01:24:04;10.30;99.90
21616;DHT22;10970;48.714;9.584;2022-11-04T01:26:30;10.30;99.90
21616;DHT22;10970;48.714;9.584;2022-11-04T01:28:56;10.30;99.90
21616;DHT22;10970;48.714;9.584;2022-11-04T01:31:28;10.30;99.90
21616;DHT22;10970;48.714;9.584;2022-11-04T01:33:54;10.40;99.90
21616;DHT22;10970;48.714;9.584;2022-11-04T01:36:21;10.30;99.90
21616;DHT22;10970;48.714;9.584;2022-11-04T01:38:47;10.40;99.90
21616;DHT22;10970;48.714;9.584;2022-11-04T01:41:39;10.40;99.90
21616;DHT22;10970;48.714;9.584;2022-11-04T01:47:40;10.40;99.90
21616;DHT22;10970;48.714;9.584;2022-11-04T01:50:15;10.30;99.90
21616;DHT22;10970;48.714;9.584;2022-11-04T01:55:16;10.40;99.90
21616;DHT22;10970;48.714;9.584;2022-11-04T01:57:46;10.40;99.90
21616;DHT22;10970;48.714;9.584;2022-11-04T02:00:13;10.40;99.90
21616;DHT22;10970;48.714;9.584;2022-11-04T02:02:58;10.40;99.90
21616;DHT22;10970;48.714;9.584;2022-11-04T02:05:27;10.30;99.90
21616;DHT22;10970;48.714;9.584;2022-11-04T02:07:55;10.30;99.90
21616;DHT22;10970;48.714;9.584;2022-11-04T02:10:24;10.20;99.90
21616;DHT22;10970;48.714;9.584;2022-11-04T02:12:50;10.20;99.90
21616;DHT22;10970;48.714;9.584;2022-11-04T02:37:00;10.30;99.90
21616;DHT22;10970;48.714;9.584;2022-11-04T02:39:53;10.30;99.90
21616;DHT22;10970;48.714;9.584;2022-11-04T02:42:55;10.20;99.90
21616;DHT22;10970;48.714;9.584;2022-11-04T02:48:23;10.30;99.90
21616;DHT22;10970;48.714;9.584;2022-11-04T02:51:10;10.20;99.90
21616;DHT22;10970;48.714;9.584;2022-11-04T02:54:10;10.20;99.90
21616;DHT22;10970;48.714;9.584;2022-11-04T02:56:45;10.10;99.90
21616;DHT22;10970;48.714;9.584;2022-11-04T02:59:37;10.00;99.90
21616;DHT22;10970;48.714;9.584;2022-11-04T03:02:06;10.00;99.90
21616;DHT22;10970;48.714;9.584;2022-11-04T03:04:37;10.00;99.90
21616;DHT22;10970;48.714;9.584;2022-11-04T03:07:05;10.00;99.90
21616;DHT22;10970;48.714;9.584;2022-11-04T03:09:33;10.00;99.90
21616;DHT22;10970;48.714;9.584;2022-11-04T03:12:08;10.00;99.90
21616;DHT22;10970;48.714;9.584;2022-11-04T03:14:38;10.00;99.90
21616;DHT22;10970;48.714;9.584;2022-11-04T03:17:13;10.00;99.90
21616;DHT22;10970;48.714;9.584;2022-11-04T03:19:53;9.90;99.90
21616;DHT22;10970;48.714;9.584;2022-11-04T03:22:24;9.80;99.90
21616;DHT22;10970;48.714;9.584;2022-11-04T03:24:51;9.80;99.90
21616;DHT22;10970;48.714;9.584;2022-11-04T03:27:45;9.80;99.90
21616;DHT22;10970;48.714;9.584;2022-11-04T03:30:17;9.80;99.90
21616;DHT22;10970;48.714;9.584;2022-11-04T03:33:03;9.80;99.90
21616;DHT22;10970;48.714;9.584;2022-11-04T03:35:30;9.70;99.90
21616;DHT22;10970;48.714;9.584;2022-11-04T03:37:56;9.70;99.90
21616;DHT22;10970;48.714;9.584;2022-11-04T03:40:22;9.70;99.90
21616;DHT22;10970;48.714;9.584;2022-11-04T03:43:08;9.70;99.90
21616;DHT22;10970;48.714;9.584;2022-11-04T03:45:35;9.70;99.90
21616;DHT22;10970;48.714;9.584;2022-11-04T03:48:01;9.70;99.90
21616;DHT22;10970;48.714;9.584;2022-11-04T03:50:32;9.60;99.90
21616;DHT22;10970;48.714;9.584;2022-11-04T03:52:58;9.70;99.90
21616;DHT22;10970;48.714;9.584;2022-11-04T03:55:34;9.70;99.90
21616;DHT22;10970;48.714;9.584;2022-11-04T03:58:07;9.60;99.90
21616;DHT22;10970;48.714;9.584;2022-11-04T04:00:39;9.50;99.90
21616;DHT22;10970;48.714;9.584;2022-11-04T04:03:16;9.50;99.90
21616;DHT22;10970;48.714;9.584;2022-11-04T04:05:54;9.50;99.90
21616;DHT22;10970;48.714;9.584;2022-11-04T04:11:04;9.40;99.90
21616;DHT22;10970;48.714;9.584;2022-11-04T04:16:35;9.40;99.90
21616;DHT22;10970;48.714;9.584;2022-11-04T04:19:27;9.40;99.90
21616;DHT22;10970;48.714;9.584;2022-11-04T04:22:18;9.40;99.90
21616;DHT22;10970;48.714;9.584;2022-11-04T04:24:47;9.40;99.90
21616;DHT22;10970;48.714;9.584;2022-11-04T04:27:33;9.40;99.90
21616;DHT22;10970;48.714;9.584;2022-11-04T04:32:33;9.30;99.90
21616;DHT22;10970;48.714;9.584;2022-11-04T04:35:00;9.30;99.90
21616;DHT22;10970;48.714;9.584;2022-11-04T04:37:45;9.30;99.90
21616;DHT22;10970;48.714;9.584;2022-11-04T04:40:15;9.30;99.90
21616;DHT22;10970;48.714;9.584;2022-11-04T04:43:01;9.20;99.90
21616;DHT22;10970;48.714;9.584;2022-11-04T04:45:51;9.20;99.90
21616;DHT22;10970;48.714;9.584;2022-11-04T04:48:18;9.20;99.90
21616;DHT22;10970;48.714;9.584;2022-11-04T04:50:47;9.20;99.90
21616;DHT22;10970;48.714;9.584;2022-11-04T04:53:14;9.20;99.90
21616;DHT22;10970;48.714;9.584;2022-11-04T04:55:40;9.30;99.90
21616;DHT22;10970;48.714;9.584;2022-11-04T04:58:05;9.20;99.90
21616;DHT22;10970;48.714;9.584;2022-11-04T05:00:31;9.20;99.90
21616;DHT22;10970;48.714;9.584;2022-11-04T05:02:58;9.10;99.90
21616;DHT22;10970;48.714;9.584;2022-11-04T05:05:23;9.10;99.90
21616;DHT22;10970;48.714;9.584;2022-11-04T05:07:49;9.00;99.90
21616;DHT22;10970;48.714;9.584;2022-11-04T05:10:16;8.90;99.90
21616;DHT22;10970;48.714;9.584;2022-11-04T05:12:42;8.90;99.90
21616;DHT22;10970;48.714;9.584;2022-11-04T05:15:27;8.80;99.90
21616;DHT22;10970;48.714;9.584;2022-11-04T05:17:58;8.80;99.90
21616;DHT22;10970;48.714;9.584;2022-11-04T05:20:24;8.80;99.90
21616;DHT22;10970;48.714;9.584;2022-11-04T05:22:50;8.80;99.90
21616;DHT22;10970;48.714;9.584;2022-11-04T05:25:16;8.90;99.90
21616;DHT22;10970;48.714;9.584;2022-11-04T05:27:42;8.90;99.90
21616;DHT22;10970;48.714;9.584;2022-11-04T05:30:08;8.90;99.90
21616;DHT22;10970;48.714;9.584;2022-11-04T05:32:34;8.90;99.90
21616;DHT22;10970;48.714;9.584;2022-11-04T05:34:59;8.80;99.90
21616;DHT22;10970;48.714;9.584;2022-11-04T05:37:25;8.70;99.90
21616;DHT22;10970;48.714;9.584;2022-11-04T05:39:51;8.70;99.90
21616;DHT22;10970;48.714;9.584;2022-11-04T05:42:17;8.70;99.90
21616;DHT22;10970;48.714;9.584;2022-11-04T05:44:42;8.60;99.90
21616;DHT22;10970;48.714;9.584;2022-11-04T05:47:08;8.60;99.90
21616;DHT22;10970;48.714;9.584;2022-11-04T05:49:34;8.60;99.90
21616;DHT22;10970;48.714;9.584;2022-11-04T05:51:59;8.60;99.90
21616;DHT22;10970;48.714;9.584;2022-11-04T05:54:25;8.60;99.90
21616;DHT22;10970;48.714;9.584;2022-11-04T05:56:51;8.60;99.90
21616;DHT22;10970;48.714;9.584;2022-11-04T05:59:17;8.60;99.90
21616;DHT22;10970;48.714;9.584;2022-11-04T06:01:42;8.60;99.90
21616;DHT22;10970;48.714;9.584;2022-11-04T06:04:13;8.60;99.90
21616;DHT22;10970;48.714;9.584;2022-11-04T06:06:39;8.50;99.90
21616;DHT22;10970;48.714;9.584;2022-11-04T06:09:05;8.50;99.90
21616;DHT22;10970;48.714;9.584;2022-11-04T06:11:31;8.40;99.90
21616;DHT22;10970;48.714;9.584;2022-11-04T06:13:58;8.50;99.90
21616;DHT22;10970;48.714;9.584;2022-11-04T06:16:24;8.40;99.90
21616;DHT22;10970;48.714;9.584;2022-11-04T06:18:50;8.40;99.90
21616;DHT22;10970;48.714;9.584;2022-11-04T06:23:43;8.40;99.90
21616;DHT22;10970;48.714;9.584;2022-11-04T06:26:10;8.40;99.90
21616;DHT22;10970;48.714;9.584;2022-11-04T06:28:36;8.40;99.90
21616;DHT22;10970;48.714;9.584;2022-11-04T06:31:04;8.40;99.90
21616;DHT22;10970;48.714;9.584;2022-11-04T06:33:31;8.40;99.90
21616;DHT22;10970;48.714;9.584;2022-11-04T06:35:58;8.60;99.90
21616;DHT22;10970;48.714;9.584;2022-11-04T06:38:24;8.60;99.90
21616;DHT22;10970;48.714;9.584;2022-11-04T06:40:49;8.60;99.90
21616;DHT22;10970;48.714;9.584;2022-11-04T06:43:15;8.60;99.90
21616;DHT22;10970;48.714;9.584;2022-11-04T06:45:41;8.60;99.90
21616;DHT22;10970;48.714;9.584;2022-11-04T06:48:06;8.50;99.90
21616;DHT22;10970;48.714;9.584;2022-11-04T06:50:32;8.50;99.90
21616;DHT22;10970;48.714;9.584;2022-11-04T06:52:58;8.50;99.90
21616;DHT22;10970;48.714;9.584;2022-11-04T06:55:24;8.50;99.90
21616;DHT22;10970;48.714;9.584;2022-11-04T06:57:50;8.50;99.90
21616;DHT22;10970;48.714;9.584;2022-11-04T07:00:16;8.50;99.90
21616;DHT22;10970;48.714;9.584;2022-11-04T07:02:41;8.50;99.90
21616;DHT22;10970;48.714;9.584;2022-11-04T07:05:07;8.50;99.90
21616;DHT22;10970;48.714;9.584;2022-11-04T07:07:33;8.50;99.90
21616;DHT22;10970;48.714;9.584;2022-11-04T07:09:59;8.60;99.90
21616;DHT22;10970;48.714;9.584;2022-11-04T07:12:24;8.70;99.90
21616;DHT22;10970;48.714;9.584;2022-11-04T07:14:50;8.80;99.90
21616;DHT22;10970;48.714;9.584;2022-11-04T07:17:16;8.70;99.90
21616;DHT22;10970;48.714;9.584;2022-11-04T07:19:42;8.70;99.90
21616;DHT22;10970;48.714;9.584;2022-11-04T07:22:07;8.60;99.90
21616;DHT22;10970;48.714;9.584;2022-11-04T07:24:34;8.70;99.90
21616;DHT22;10970;48.714;9.584;2022-11-04T07:26:59;8.70;99.90
21616;DHT22;10970;48.714;9.584;2022-11-04T07:29:25;8.70;99.90
21616;DHT22;10970;48.714;9.584;2022-11-04T07:31:51;8.80;99.90
21616;DHT22;10970;48.714;9.584;2022-11-04T07:34:16;8.80;99.90
21616;DHT22;10970;48.714;9.584;2022-11-04T07:36:42;8.80;99.90
21616;DHT22;10970;48.714;9.584;2022-11-04T07:39:08;8.80;99.90
21616;DHT22;10970;48.714;9.584;2022-11-04T07:41:33;8.80;99.90
21616;DHT22;10970;48.714;9.584;2022-11-04T07:43:59;8.80;99.90
21616;DHT22;10970;48.714;9.584;2022-11-04T07:46:26;8.80;99.90
21616;DHT22;10970;48.714;9.584;2022-11-04T07:48:56;8.90;99.90
21616;DHT22;10970;48.714;9.584;2022-11-04T07:51:22;8.90;99.90
21616;DHT22;10970;48.714;9.584;2022-11-04T07:53:48;8.90;99.90
21616;DHT22;10970;48.714;9.584;2022-11-04T07:56:15;8.90;99.90
21616;DHT22;10970;48.714;9.584;2022-11-04T07:58:41;9.00;99.90
21616;DHT22;10970;48.714;9.584;2022-11-04T08:01:09;9.10;99.90
21616;DHT22;10970;48.714;9.584;2022-11-04T08:03:36;9.10;99.90
21616;DHT22;10970;48.714;9.584;2022-11-04T08:06:04;9.10;99.90
21616;DHT22;10970;48.714;9.584;2022-11-04T08:08:30;9.10;99.90
21616;DHT22;10970;48.714;9.584;2022-11-04T08:11:02;9.10;99.90
21616;DHT22;10970;48.714;9.584;2022-11-04T08:13:32;9.20;99.90
21616;DHT22;10970;48.714;9.584;2022-11-04T08:16:04;9.30;99.90
21616;DHT22;10970;48.714;9.584;2022-11-04T08:18:31;9.30;99.90
21616;DHT22;10970;48.714;9.584;2022-11-04T08:20:57;9.20;99.90
21616;DHT22;10970;48.714;9.584;2022-11-04T08:23:23;9.30;99.90
21616;DHT22;10970;48.714;9.584;2022-11-04T08:25:48;9.40;99.90
21616;DHT22;10970;48.714;9.584;2022-11-04T08:28:14;9.30;99.90
21616;DHT22;10970;48.714;9.584;2022-11-04T08:31:02;9.40;99.90
21616;DHT22;10970;48.714;9.584;2022-11-04T08:33:30;9.50;99.90
21616;DHT22;10970;48.714;9.584;2022-11-04T08:35:59;9.50;99.90
21616;DHT22;10970;48.714;9.584;2022-11-04T08:38:25;9.50;99.90
21616;DHT22;10970;48.714;9.584;2022-11-04T08:40:51;9.60;99.90
21616;DHT22;10970;48.714;9.584;2022-11-04T08:43:17;9.60;99.90
21616;DHT22;10970;48.714;9.584;2022-11-04T08:45:45;9.60;99.90
21616;DHT22;10970;48.714;9.584;2022-11-04T08:48:12;9.70;99.90
21616;DHT22;10970;48.714;9.584;2022-11-04T08:50:39;9.70;99.90
21616;DHT22;10970;48.714;9.584;2022-11-04T08:53:05;9.90;99.90
21616;DHT22;10970;48.714;9.584;2022-11-04T08:55:31;9.90;99.90
21616;DHT22;10970;48.714;9.584;2022-11-04T08:57:58;9.90;99.90
21616;DHT22;10970;48.714;9.584;2022-11-04T09:00:24;10.00;99.90
21616;DHT22;10970;48.714;9.584;2022-11-04T09:02:50;10.10;99.90
21616;DHT22;10970;48.714;9.584;2022-11-04T09:05:16;10.20;99.90
21616;DHT22;10970;48.714;9.584;2022-11-04T09:07:42;10.30;99.90
21616;DHT22;10970;48.714;9.584;2022-11-04T09:10:08;10.40;99.90
21616;DHT22;10970;48.714;9.584;2022-11-04T09:12:34;10.50;99.90
21616;DHT22;10970;48.714;9.584;2022-11-04T09:15:01;10.60;99.90
21616;DHT22;10970;48.714;9.584;2022-11-04T09:17:27;10.50;99.90
21616;DHT22;10970;48.714;9.584;2022-11-04T09:19:52;10.70;99.90
21616;DHT22;10970;48.714;9.584;2022-11-04T09:22:18;10.60;99.90
21616;DHT22;10970;48.714;9.584;2022-11-04T09:24:44;10.60;99.90
21616;DHT22;10970;48.714;9.584;2022-11-04T09:27:09;10.80;99.90
21616;DHT22;10970;48.714;9.584;2022-11-04T09:29:35;10.80;99.90
21616;DHT22;10970;48.714;9.584;2022-11-04T09:32:02;10.80;99.90
21616;DHT22;10970;48.714;9.584;2022-11-04T09:34:29;10.70;99.90
21616;DHT22;10970;48.714;9.584;2022-11-04T09:36:55;10.70;99.90
21616;DHT22;10970;48.714;9.584;2022-11-04T09:39:22;10.80;99.90
21616;DHT22;10970;48.714;9.584;2022-11-04T09:45:07;11.00;99.90
21616;DHT22;10970;48.714;9.584;2022-11-04T09:47:34;11.10;99.90
21616;DHT22;10970;48.714;9.584;2022-11-04T09:50:01;11.20;99.90
21616;DHT22;10970;48.714;9.584;2022-11-04T09:52:30;11.50;99.90
21616;DHT22;10970;48.714;9.584;2022-11-04T09:55:19;11.40;99.90
21616;DHT22;10970;48.714;9.584;2022-11-04T09:57:52;11.50;99.90
21616;DHT22;10970;48.714;9.584;2022-11-04T10:00:19;11.60;99.90
21616;DHT22;10970;48.714;9.584;2022-11-04T10:11:27;11.60;99.90
21616;DHT22;10970;48.714;9.584;2022-11-04T10:14:03;11.70;99.90
21616;DHT22;10970;48.714;9.584;2022-11-04T10:22:30;11.90;99.90
21616;DHT22;10970;48.714;9.584;2022-11-04T10:25:21;11.90;99.90
21616;DHT22;10970;48.714;9.584;2022-11-04T10:27:49;11.90;99.90
21616;DHT22;10970;48.714;9.584;2022-11-04T10:30:24;12.00;99.90
21616;DHT22;10970;48.714;9.584;2022-11-04T10:33:24;12.00;99.90
21616;DHT22;10970;48.714;9.584;2022-11-04T10:36:06;12.30;99.90
21616;DHT22;10970;48.714;9.584;2022-11-04T10:38:51;12.40;99.90
21616;DHT22;10970;48.714;9.584;2022-11-04T10:41:29;12.40;99.90
21616;DHT22;10970;48.714;9.584;2022-11-04T10:44:02;12.20;99.90
21616;DHT22;10970;48.714;9.584;2022-11-04T10:51:54;12.30;99.90
21616;DHT22;10970;48.714;9.584;2022-11-04T10:54:21;12.30;99.90
21616;DHT22;10970;48.714;9.584;2022-11-04T10:56:53;12.50;99.90
21616;DHT22;10970;48.714;9.584;2022-11-04T10:59:33;12.50;99.90
21616;DHT22;10970;48.714;9.584;2022-11-04T11:02:01;12.50;99.90
21616;DHT22;10970;48.714;9.584;2022-11-04T11:04:45;12.60;99.90
21616;DHT22;10970;48.714;9.584;2022-11-04T11:07:14;12.50;99.90
21616;DHT22;10970;48.714;9.584;2022-11-04T11:14:40;13.00;99.90
21616;DHT22;10970;48.714;9.584;2022-11-04T11:17:48;13.00;99.90
21616;DHT22;10970;48.714;9.584;2022-11-04T11:20:20;12.90;99.90
21616;DHT22;10970;48.714;9.584;2022-11-04T11:22:48;12.90;99.90
21616;DHT22;10970;48.714;9.584;2022-11-04T11:25:32;12.80;99.90
21616;DHT22;10970;48.714;9.584;2022-11-04T11:28:05;12.60;99.90
21616;DHT22;10970;48.714;9.584;2022-11-04T11:33:05;12.60;99.90
21616;DHT22;10970;48.714;9.584;2022-11-04T11:35:36;12.90;99.90
21616;DHT22;10970;48.714;9.584;2022-11-04T11:38:21;13.00;99.90
21616;DHT22;10970;48.714;9.584;2022-11-04T11:40:47;13.00;99.90
21616;DHT22;10970;48.714;9.584;2022-11-04T11:43:27;12.90;99.90
21616;DHT22;10970;48.714;9.584;2022-11-04T11:45:54;13.00;99.90
21616;DHT22;10970;48.714;9.584;2022-11-04T11:48:29;13.10;99.90
21616;DHT22;10970;48.714;9.584;2022-11-04T11:50:56;13.10;99.90
21616;DHT22;10970;48.714;9.584;2022-11-04T11:53:27;13.00;99.90
21616;DHT22;10970;48.714;9.584;2022-11-04T11:56:12;12.80;99.90
21616;DHT22;10970;48.714;9.584;2022-11-04T11:58:50;12.90;99.90
21616;DHT22;10970;48.714;9.584;2022-11-04T12:01:27;12.90;99.90
21616;DHT22;10970;48.714;9.584;2022-11-04T12:03:55;13.10;99.90
21616;DHT22;10970;48.714;9.584;2022-11-04T12:09:04;13.30;99.90
21616;DHT22;10970;48.714;9.584;2022-11-04T12:14:18;13.20;99.90
21616;DHT22;10970;48.714;9.584;2022-11-04T12:27:49;13.50;99.90
21616;DHT22;10970;48.714;9.584;2022-11-04T12:30:19;13.70;99.90
21616;DHT22;10970;48.714;9.584;2022-11-04T12:38:01;13.30;99.90
21616;DHT22;10970;48.714;9.584;2022-11-04T12:40:33;13.20;99.90
21616;DHT22;10970;48.714;9.584;2022-11-04T12:43:28;13.10;99.90
21616;DHT22;10970;48.714;9.584;2022-11-04T12:57:14;13.10;99.90
21616;DHT22;10970;48.714;9.584;2022-11-04T13:00:00;13.00;99.90
21616;DHT22;10970;48.714;9.584;2022-11-04T13:02:34;13.10;99.90
21616;DHT22;10970;48.714;9.584;2022-11-04T13:10:37;13.10;99.90
21616;DHT22;10970;48.714;9.584;2022-11-04T13:13:05;13.10;99.90
21616;DHT22;10970;48.714;9.584;2022-11-04T13:15:45;13.00;99.90
21616;DHT22;10970;48.714;9.584;2022-11-04T13:18:15;13.10;99.90
21616;DHT22;10970;48.714;9.584;2022-11-04T13:20:49;13.10;99.90
21616;DHT22;10970;48.714;9.584;2022-11-04T13:23:28;13.10;99.90
21616;DHT22;10970;48.714;9.584;2022-11-04T13:25:56;13.10;99.90
21616;DHT22;10970;48.714;9.584;2022-11-04T13:28:23;13.10;99.90
21616;DHT22;10970;48.714;9.584;2022-11-04T13:39:19;13.10;99.90
21616;DHT22;10970;48.714;9.584;2022-11-04T13:42:39;13.10;99.90
21616;DHT22;10970;48.714;9.584;2022-11-04T13:44:46;13.00;99.90
21616;DHT22;10970;48.714;9.584;2022-11-04T13:47:37;12.90;99.90
21616;DHT22;10970;48.714;9.584;2022-11-04T13:52:58;12.90;99.90
21616;DHT22;10970;48.714;9.584;2022-11-04T13:55:24;12.90;99.90
21616;DHT22;10970;48.714;9.584;2022-11-04T13:57:56;12.90;99.90
21616;DHT22;10970;48.714;9.584;2022-11-04T14:00:30;12.80;99.90
21616;DHT22;10970;48.714;9.584;2022-11-04T14:02:59;12.70;99.90
21616;DHT22;10970;48.714;9.584;2022-11-04T14:06:07;12.70;99.90
21616;DHT22;10970;48.714;9.584;2022-11-04T14:08:32;12.70;99.90
21616;DHT22;10970;48.714;9.584;2022-11-04T14:11:09;12.70;99.90
21616;DHT22;10970;48.714;9.584;2022-11-04T14:18:39;12.70;99.90
21616;DHT22;10970;48.714;9.584;2022-11-04T14:23:31;12.50;99.90
21616;DHT22;10970;48.714;9.584;2022-11-04T14:26:02;12.50;99.90
21616;DHT22;10970;48.714;9.584;2022-11-04T14:28:30;12.70;99.90
21616;DHT22;10970;48.714;9.584;2022-11-04T14:35:54;12.70;99.90
21616;DHT22;10970;48.714;9.584;2022-11-04T14:38:29;12.70;99.90
21616;DHT22;10970;48.714;9.584;2022-11-04T14:43:45;12.70;99.90
21616;DHT22;10970;48.714;9.584;2022-11-04T14:46:20;13.00;99.90
21616;DHT22;10970;48.714;9.584;2022-11-04T14:48:51;13.00;99.90
21616;DHT22;10970;48.714;9.584;2022-11-04T14:51:33;12.90;99.90
21616;DHT22;10970;48.714;9.584;2022-11-04T14:54:10;12.70;99.90
21616;DHT22;10970;48.714;9.584;2022-11-04T14:56:37;12.60;99.90
21616;DHT22;10970;48.714;9.584;2022-11-04T14:59:05;12.50;99.90
21616;DHT22;10970;48.714;9.584;2022-11-04T15:01:38;12.50;99.90
21616;DHT22;10970;48.714;9.584;2022-11-04T15:06:42;12.60;99.90
21616;DHT22;10970;48.714;9.584;2022-11-04T15:09:26;12.60;99.90
21616;DHT22;10970;48.714;9.584;2022-11-04T15:14:52;12.20;99.90
21616;DHT22;10970;48.714;9.584;2022-11-04T15:17:19;12.20;99.90
21616;DHT22;10970;48.714;9.584;2022-11-04T15:19:55;12.10;99.90
21616;DHT22;10970;48.714;9.584;2022-11-04T15:22:21;12.10;99.90
21616;DHT22;10970;48.714;9.584;2022-11-04T15:24:47;12.10;99.90
21616;DHT22;10970;48.714;9.584;2022-11-04T15:27:18;12.10;99.90
21616;DHT22;10970;48.714;9.584;2022-11-04T15:29:55;12.10;99.90
21616;DHT22;10970;48.714;9.584;2022-11-04T15:32:21;12.00;99.90
21616;DHT22;10970;48.714;9.584;2022-11-04T15:34:48;11.90;99.90
21616;DHT22;10970;48.714;9.584;2022-11-04T15:37:14;11.80;99.90
21616;DHT22;10970;48.714;9.584;2022-11-04T15:39:47;11.80;99.90
21616;DHT22;10970;48.714;9.584;2022-11-04T15:42:18;11.60;99.90
21616;DHT22;10970;48.714;9.584;2022-11-04T15:45:25;11.60;99.90
21616;DHT22;10970;48.714;9.584;2022-11-04T15:53:22;11.40;99.90
21616;DHT22;10970;48.714;9.584;2022-11-04T15:55:48;11.40;99.90
21616;DHT22;10970;48.714;9.584;2022-11-04T15:58:14;11.40;99.90
21616;DHT22;10970;48.714;9.584;2022-11-04T16:00:42;11.30;99.90
21616;DHT22;10970;48.714;9.584;2022-11-04T16:03:17;11.30;99.90
21616;DHT22;10970;48.714;9.584;2022-11-04T16:06:00;11.20;99.90
21616;DHT22;10970;48.714;9.584;2022-11-04T16:08:28;11.20;99.90
21616;DHT22;10970;48.714;9.584;2022-11-04T16:11:15;11.20;99.90
21616;DHT22;10970;48.714;9.584;2022-11-04T16:13:42;11.20;99.90
21616;DHT22;10970;48.714;9.584;2022-11-04T16:16:28;11.10;99.90
21616;DHT22;10970;48.714;9.584;2022-11-04T16:18:57;10.90;99.90
21616;DHT22;10970;48.714;9.584;2022-11-04T16:21:27;10.80;99.90
21616;DHT22;10970;48.714;9.584;2022-11-04T16:26:41;10.70;99.90
21616;DHT22;10970;48.714;9.584;2022-11-04T16:29:29;10.70;99.90
21616;DHT22;10970;48.714;9.584;2022-11-04T16:34:33;10.70;99.90
21616;DHT22;10970;48.714;9.584;2022-11-04T16:37:00;10.70;99.90
21616;DHT22;10970;48.714;9.584;2022-11-04T16:39:25;10.60;99.90
21616;DHT22;10970;48.714;9.584;2022-11-04T16:41:51;10.60;99.90
21616;DHT22;10970;48.714;9.584;2022-11-04T16:44:21;10.50;99.90
21616;DHT22;10970;48.714;9.584;2022-11-04T16:46:47;10.50;99.90
21616;DHT22;10970;48.714;9.584;2022-11-04T16:49:15;10.50;99.90
21616;DHT22;10970;48.714;9.584;2022-11-04T16:51:41;10.40;99.90
21616;DHT22;10970;48.714;9.584;2022-11-04T16:54:07;10.50;99.90
21616;DHT22;10970;48.714;9.584;2022-11-04T16:56:33;10.40;99.90
21616;DHT22;10970;48.714;9.584;2022-11-04T16:58:59;10.40;99.90
21616;DHT22;10970;48.714;9.584;2022-11-04T17:01:24;10.50;99.90
21616;DHT22;10970;48.714;9.584;2022-11-04T17:03:51;10.40;99.90
21616;DHT22;10970;48.714;9.584;2022-11-04T17:06:17;10.50;99.90
21616;DHT22;10970;48.714;9.584;2022-11-04T17:08:43;10.40;99.90
21616;DHT22;10970;48.714;9.584;2022-11-04T17:11:10;10.30;99.90
21616;DHT22;10970;48.714;9.584;2022-11-04T17:13:36;10.20;99.90
21616;DHT22;10970;48.714;9.584;2022-11-04T17:16:03;10.10;99.90
21616;DHT22;10970;48.714;9.584;2022-11-04T17:18:30;10.10;99.90
21616;DHT22;10970;48.714;9.584;2022-11-04T17:20:58;10.10;99.90
21616;DHT22;10970;48.714;9.584;2022-11-04T17:23:25;10.20;99.90
21616;DHT22;10970;48.714;9.584;2022-11-04T17:25:51;10.20;99.90
21616;DHT22;10970;48.714;9.584;2022-11-04T17:28:17;10.20;99.90
21616;DHT22;10970;48.714;9.584;2022-11-04T17:30:43;10.20;99.90
21616;DHT22;10970;48.714;9.584;2022-11-04T17:33:12;10.10;99.90
21616;DHT22;10970;48.714;9.584;2022-11-04T17:35:39;10.10;99.90
21616;DHT22;10970;48.714;9.584;2022-11-04T17:38:06;10.10;99.90
21616;DHT22;10970;48.714;9.584;2022-11-04T17:40:31;10.10;99.90
21616;DHT22;10970;48.714;9.584;2022-11-04T17:42:57;10.00;99.90
21616;DHT22;10970;48.714;9.584;2022-11-04T17:45:42;10.00;99.90
21616;DHT22;10970;48.714;9.584;2022-11-04T17:48:09;9.90;99.90
21616;DHT22;10970;48.714;9.584;2022-11-04T17:50:38;9.90;99.90
21616;DHT22;10970;48.714;9.584;2022-11-04T17:53:03;9.90;99.90
21616;DHT22;10970;48.714;9.584;2022-11-04T17:55:29;9.90;99.90
21616;DHT22;10970;48.714;9.584;2022-11-04T17:57:55;9.90;99.90
21616;DHT22;10970;48.714;9.584;2022-11-04T18:00:21;9.90;99.90
21616;DHT22;10970;48.714;9.584;2022-11-04T18:02:51;9.90;99.90
21616;DHT22;10970;48.714;9.584;2022-11-04T18:05:16;9.80;99.90
21616;DHT22;10970;48.714;9.584;2022-11-04T18:07:42;9.80;99.90
21616;DHT22;10970;48.714;9.584;2022-11-04T18:10:08;9.70;99.90
21616;DHT22;10970;48.714;9.584;2022-11-04T18:12:33;9.70;99.90
21616;DHT22;10970;48.714;9.584;2022-11-04T18:15:08;9.70;99.90
21616;DHT22;10970;48.714;9.584;2022-11-04T18:17:38;9.70;99.90
21616;DHT22;10970;48.714;9.584;2022-11-04T18:20:10;9.60;99.90
21616;DHT22;10970;48.714;9.584;2022-11-04T18:22:38;9.60;99.90
21616;DHT22;10970;48.714;9.584;2022-11-04T18:25:05;9.60;99.90
21616;DHT22;10970;48.714;9.584;2022-11-04T18:27:31;9.50;99.90
21616;DHT22;10970;48.714;9.584;2022-11-04T18:29:57;9.50;99.90
21616;DHT22;10970;48.714;9.584;2022-11-04T18:32:23;9.50;99.90